sensor_id;sensor_type;location;lat;lon;timestamp;pressure;altitude;pressure_sealevel;temperature;humidity
8699;BME280;4386;51.236;6.742;2022-07-03T00:00:08;101278.22;;;22.57;53.00
8699;BME280;4386;51.236;6.742;2022-07-03T00:01:10;101278.22;;;22.57;53.03
8699;BME280;4386;51.236;6.742;2022-07-03T00:02:14;101278.22;;;22.57;53.00
8699;BME280;4386;51.236;6.742;2022-07-03T00:03:16;101272.81;;;22.57;53.16
8699;BME280;4386;51.236;6.742;2022-07-03T00:04:19;101273.84;;;22.56;53.12
8699;BME280;4386;51.236;6.742;2022-07-03T00:05:21;101274.84;;;22.55;53.05
8699;BME280;4386;51.236;6.742;2022-07-03T00:06:25;101277.75;;;22.53;53.26
8699;BME280;4386;51.236;6.742;2022-07-03T00:07:27;101274.22;;;22.53;53.25
8699;BME280;4386;51.236;6.742;2022-07-03T00:08:30;101275.22;;;22.52;52.97
8699;BME280;4386;51.236;6.742;2022-07-03T00:09:31;101267.31;;;22.50;53.08
8699;BME280;4386;51.236;6.742;2022-07-03T00:10:34;101276.25;;;22.51;53.05
8699;BME280;4386;51.236;6.742;2022-07-03T00:11:36;101272.88;;;22.49;52.65
8699;BME280;4386;51.236;6.742;2022-07-03T00:12:39;101272.25;;;22.47;52.76
8699;BME280;4386;51.236;6.742;2022-07-03T00:13:41;101268.88;;;22.45;52.74
8699;BME280;4386;51.236;6.742;2022-07-03T00:14:43;101276.31;;;22.43;52.58
8699;BME280;4386;51.236;6.742;2022-07-03T00:15:46;101275.84;;;22.39;52.41
8699;BME280;4386;51.236;6.742;2022-07-03T00:16:48;101275.00;;;22.39;52.71
8699;BME280;4386;51.236;6.742;2022-07-03T00:17:52;101278.75;;;22.38;52.76
8699;BME280;4386;51.236;6.742;2022-07-03T00:18:55;101276.03;;;22.38;53.05
8699;BME280;4386;51.236;6.742;2022-07-03T00:19:57;101273.34;;;22.38;52.87
8699;BME280;4386;51.236;6.742;2022-07-03T00:21:01;101277.06;;;22.37;52.84
8699;BME280;4386;51.236;6.742;2022-07-03T00:22:05;101273.34;;;22.38;52.92
8699;BME280;4386;51.236;6.742;2022-07-03T00:23:09;101273.34;;;22.38;52.91
8699;BME280;4386;51.236;6.742;2022-07-03T00:24:18;101273.16;;;22.39;52.90
8699;BME280;4386;51.236;6.742;2022-07-03T00:25:22;101272.31;;;22.39;53.13
8699;BME280;4386;51.236;6.742;2022-07-03T00:26:24;101276.69;;;22.40;53.10
8699;BME280;4386;51.236;6.742;2022-07-03T00:27:28;101280.03;;;22.42;52.89
8699;BME280;4386;51.236;6.742;2022-07-03T00:28:31;101281.09;;;22.41;52.85
8699;BME280;4386;51.236;6.742;2022-07-03T00:29:37;101280.03;;;22.42;52.72
8699;BME280;4386;51.236;6.742;2022-07-03T00:30:39;101278.38;;;22.41;52.77
8699;BME280;4386;51.236;6.742;2022-07-03T00:31:43;101279.22;;;22.41;52.77
8699;BME280;4386;51.236;6.742;2022-07-03T00:32:46;101291.53;;;22.44;52.88
8699;BME280;4386;51.236;6.742;2022-07-03T00:33:51;101292.53;;;22.43;52.89
8699;BME280;4386;51.236;6.742;2022-07-03T00:34:57;101289.66;;;22.44;53.11
8699;BME280;4386;51.236;6.742;2022-07-03T00:36:00;101294.22;;;22.44;52.89
8699;BME280;4386;51.236;6.742;2022-07-03T00:37:06;101297.56;;;22.46;52.91
8699;BME280;4386;51.236;6.742;2022-07-03T00:38:10;101297.56;;;22.46;52.69
8699;BME280;4386;51.236;6.742;2022-07-03T00:39:12;101291.16;;;22.47;52.79
8699;BME280;4386;51.236;6.742;2022-07-03T00:40:15;101297.19;;;22.49;53.00
8699;BME280;4386;51.236;6.742;2022-07-03T00:41:26;101291.81;;;22.49;53.20
8699;BME280;4386;51.236;6.742;2022-07-03T00:42:28;101287.25;;;22.49;53.14
8699;BME280;4386;51.236;6.742;2022-07-03T00:43:30;101281.84;;;22.49;53.52
8699;BME280;4386;51.236;6.742;2022-07-03T00:44:35;101276.25;;;22.51;53.66
8699;BME280;4386;51.236;6.742;2022-07-03T00:45:47;101274.56;;;22.50;53.23
8699;BME280;4386;51.236;6.742;2022-07-03T00:46:52;101273.09;;;22.47;53.77
8699;BME280;4386;51.236;6.742;2022-07-03T00:47:55;101274.25;;;22.45;53.53
8699;BME280;4386;51.236;6.742;2022-07-03T00:48:58;101272.63;;;22.44;54.04
8699;BME280;4386;51.236;6.742;2022-07-03T00:50:07;101268.59;;;22.40;53.75
8699;BME280;4386;51.236;6.742;2022-07-03T00:51:14;101267.94;;;22.38;54.21
8699;BME280;4386;51.236;6.742;2022-07-03T00:52:19;101268.13;;;22.36;54.00
8699;BME280;4386;51.236;6.742;2022-07-03T00:53:27;101260.38;;;22.33;54.39
8699;BME280;4386;51.236;6.742;2022-07-03T00:54:32;101259.91;;;22.29;54.24
8699;BME280;4386;51.236;6.742;2022-07-03T00:55:35;101258.22;;;22.28;54.54
8699;BME280;4386;51.236;6.742;2022-07-03T00:56:41;101253.00;;;22.27;54.68
8699;BME280;4386;51.236;6.742;2022-07-03T00:57:44;101255.06;;;22.25;54.71
8699;BME280;4386;51.236;6.742;2022-07-03T00:58:47;101260.63;;;22.23;54.83
8699;BME280;4386;51.236;6.742;2022-07-03T00:59:51;101257.28;;;22.21;54.76
8699;BME280;4386;51.236;6.742;2022-07-03T01:00:54;101254.97;;;22.18;54.92
8699;BME280;4386;51.236;6.742;2022-07-03T01:02:03;101254.47;;;22.15;55.07
8699;BME280;4386;51.236;6.742;2022-07-03T01:03:06;101254.63;;;22.13;54.90
8699;BME280;4386;51.236;6.742;2022-07-03T01:04:18;101247.75;;;22.11;55.17
8699;BME280;4386;51.236;6.742;2022-07-03T01:05:27;101254.16;;;22.10;55.21
8699;BME280;4386;51.236;6.742;2022-07-03T01:06:35;101241.22;;;22.05;55.59
8699;BME280;4386;51.236;6.742;2022-07-03T01:07:47;101242.88;;;22.06;55.40
8699;BME280;4386;51.236;6.742;2022-07-03T01:08:51;101244.09;;;22.04;55.18
8699;BME280;4386;51.236;6.742;2022-07-03T01:09:59;101245.31;;;22.01;55.50
8699;BME280;4386;51.236;6.742;2022-07-03T01:11:09;101240.91;;;22.00;55.70
8699;BME280;4386;51.236;6.742;2022-07-03T01:12:20;101238.56;;;21.97;55.56
8699;BME280;4386;51.236;6.742;2022-07-03T01:13:35;101243.97;;;21.97;55.36
8699;BME280;4386;51.236;6.742;2022-07-03T01:14:48;101244.34;;;21.94;55.71
8699;BME280;4386;51.236;6.742;2022-07-03T01:16:00;101241.00;;;21.92;55.59
8699;BME280;4386;51.236;6.742;2022-07-03T01:17:06;101238.28;;;21.92;55.75
8699;BME280;4386;51.236;6.742;2022-07-03T01:18:23;101239.31;;;21.91;55.99
8699;BME280;4386;51.236;6.742;2022-07-03T01:19:39;101238.47;;;21.91;56.12
8699;BME280;4386;51.236;6.742;2022-07-03T01:20:50;101235.94;;;21.89;56.03
8699;BME280;4386;51.236;6.742;2022-07-03T01:21:57;101241.50;;;21.88;55.65
8699;BME280;4386;51.236;6.742;2022-07-03T01:23:09;101247.06;;;21.86;56.18
8699;BME280;4386;51.236;6.742;2022-07-03T01:24:35;101240.00;;;21.85;55.95
8699;BME280;4386;51.236;6.742;2022-07-03T01:25:44;101244.56;;;21.85;55.53
8699;BME280;4386;51.236;6.742;2022-07-03T01:26:50;101245.41;;;21.85;55.92
8699;BME280;4386;51.236;6.742;2022-07-03T01:27:58;101243.72;;;21.84;55.89
8699;BME280;4386;51.236;6.742;2022-07-03T01:29:06;101243.72;;;21.84;56.03
8699;BME280;4386;51.236;6.742;2022-07-03T01:30:10;101243.72;;;21.84;56.08
8699;BME280;4386;51.236;6.742;2022-07-03T01:31:18;101235.63;;;21.84;55.84
8699;BME280;4386;51.236;6.742;2022-07-03T01:32:23;101245.41;;;21.85;55.90
8699;BME280;4386;51.236;6.742;2022-07-03T01:33:30;101240.00;;;21.85;55.99
8699;BME280;4386;51.236;6.742;2022-07-03T01:34:34;101233.06;;;21.82;56.21
8699;BME280;4386;51.236;6.742;2022-07-03T01:35:41;101232.44;;;21.80;56.09
8699;BME280;4386;51.236;6.742;2022-07-03T01:36:50;101226.19;;;21.80;56.52
8699;BME280;4386;51.236;6.742;2022-07-03T01:37:56;101222.66;;;21.79;56.42
8699;BME280;4386;51.236;6.742;2022-07-03T01:39:03;101225.53;;;21.78;56.63
8699;BME280;4386;51.236;6.742;2022-07-03T01:40:06;101230.25;;;21.76;56.55
8699;BME280;4386;51.236;6.742;2022-07-03T01:41:11;101224.22;;;21.74;56.87
8699;BME280;4386;51.236;6.742;2022-07-03T01:42:13;101227.28;;;21.71;56.81
8699;BME280;4386;51.236;6.742;2022-07-03T01:43:18;101227.28;;;21.71;56.87
8699;BME280;4386;51.236;6.742;2022-07-03T01:44:27;101230.13;;;21.69;57.25
8699;BME280;4386;51.236;6.742;2022-07-03T01:45:31;101226.63;;;21.69;57.34
8699;BME280;4386;51.236;6.742;2022-07-03T01:46:34;101234.72;;;21.69;57.27
8699;BME280;4386;51.236;6.742;2022-07-03T01:47:38;101231.19;;;21.68;57.12
8699;BME280;4386;51.236;6.742;2022-07-03T01:48:43;101226.78;;;21.67;57.22
8699;BME280;4386;51.236;6.742;2022-07-03T01:49:48;101233.03;;;21.68;57.53
8699;BME280;4386;51.236;6.742;2022-07-03T01:50:52;101225.09;;;21.66;57.22
8699;BME280;4386;51.236;6.742;2022-07-03T01:51:54;101234.25;;;21.65;57.35
8699;BME280;4386;51.236;6.742;2022-07-03T01:53:01;101233.38;;;21.65;57.54
8699;BME280;4386;51.236;6.742;2022-07-03T01:54:04;101231.69;;;21.64;57.32
8699;BME280;4386;51.236;6.742;2022-07-03T01:55:08;101231.91;;;21.62;57.76
8699;BME280;4386;51.236;6.742;2022-07-03T01:56:12;101235.59;;;21.61;58.00
8699;BME280;4386;51.236;6.742;2022-07-03T01:57:15;101238.47;;;21.60;57.53
8699;BME280;4386;51.236;6.742;2022-07-03T01:58:17;101237.81;;;21.58;57.92
8699;BME280;4386;51.236;6.742;2022-07-03T01:59:20;101228.22;;;21.55;58.16
8699;BME280;4386;51.236;6.742;2022-07-03T02:00:22;101235.63;;;21.53;58.30
8699;BME280;4386;51.236;6.742;2022-07-03T02:01:27;101236.50;;;21.54;58.06
8699;BME280;4386;51.236;6.742;2022-07-03T02:02:33;101234.81;;;21.53;57.98
8699;BME280;4386;51.236;6.742;2022-07-03T02:03:41;101230.44;;;21.52;58.46
8699;BME280;4386;51.236;6.742;2022-07-03T02:04:54;101226.06;;;21.51;58.49
8699;BME280;4386;51.236;6.742;2022-07-03T02:06:04;101229.78;;;21.50;58.79
8699;BME280;4386;51.236;6.742;2022-07-03T02:07:10;101229.78;;;21.50;58.47
8699;BME280;4386;51.236;6.742;2022-07-03T02:08:33;101225.41;;;21.49;58.52
8699;BME280;4386;51.236;6.742;2022-07-03T02:09:44;101228.09;;;21.49;58.79
8699;BME280;4386;51.236;6.742;2022-07-03T02:11:02;101228.09;;;21.49;59.00
8699;BME280;4386;51.236;6.742;2022-07-03T02:12:13;101226.41;;;21.48;58.65
8699;BME280;4386;51.236;6.742;2022-07-03T02:13:17;101220.84;;;21.49;58.98
8699;BME280;4386;51.236;6.742;2022-07-03T02:14:24;101222.72;;;21.49;59.19
8699;BME280;4386;51.236;6.742;2022-07-03T02:15:29;101224.56;;;21.48;59.07
8699;BME280;4386;51.236;6.742;2022-07-03T02:16:42;101221.03;;;21.48;59.31
8699;BME280;4386;51.236;6.742;2022-07-03T02:17:47;101219.31;;;21.47;58.91
8699;BME280;4386;51.236;6.742;2022-07-03T02:18:58;101219.31;;;21.47;59.19
8699;BME280;4386;51.236;6.742;2022-07-03T02:20:03;101215.63;;;21.48;59.41
8699;BME280;4386;51.236;6.742;2022-07-03T02:21:10;101215.63;;;21.48;59.43
8699;BME280;4386;51.236;6.742;2022-07-03T02:22:19;101219.31;;;21.47;59.48
8699;BME280;4386;51.236;6.742;2022-07-03T02:23:24;101216.47;;;21.48;59.32
8699;BME280;4386;51.236;6.742;2022-07-03T02:24:29;101220.38;;;21.46;59.69
8699;BME280;4386;51.236;6.742;2022-07-03T02:25:34;101216.81;;;21.45;59.72
8699;BME280;4386;51.236;6.742;2022-07-03T02:26:38;101218.69;;;21.45;59.38
8699;BME280;4386;51.236;6.742;2022-07-03T02:27:43;101218.88;;;21.43;59.87
8699;BME280;4386;51.236;6.742;2022-07-03T02:28:56;101222.56;;;21.42;59.85
8699;BME280;4386;51.236;6.742;2022-07-03T02:30:03;101219.03;;;21.42;59.56
8699;BME280;4386;51.236;6.742;2022-07-03T02:31:07;101225.44;;;21.41;59.41
8699;BME280;4386;51.236;6.742;2022-07-03T02:32:13;101219.41;;;21.39;59.70
8699;BME280;4386;51.236;6.742;2022-07-03T02:33:19;101222.94;;;21.39;59.88
8699;BME280;4386;51.236;6.742;2022-07-03T02:34:24;101225.78;;;21.38;59.80
8699;BME280;4386;51.236;6.742;2022-07-03T02:35:28;101219.56;;;21.37;59.89
8699;BME280;4386;51.236;6.742;2022-07-03T02:36:31;101219.56;;;21.37;60.23
8699;BME280;4386;51.236;6.742;2022-07-03T02:37:40;101219.75;;;21.36;60.21
8699;BME280;4386;51.236;6.742;2022-07-03T02:38:44;101212.00;;;21.33;60.18
8699;BME280;4386;51.236;6.742;2022-07-03T02:39:51;101215.38;;;21.35;60.27
8699;BME280;4386;51.236;6.742;2022-07-03T02:40:57;101221.59;;;21.35;59.94
8699;BME280;4386;51.236;6.742;2022-07-03T02:42:04;101224.13;;;21.37;60.41
8699;BME280;4386;51.236;6.742;2022-07-03T02:43:18;101226.16;;;21.35;60.08
8699;BME280;4386;51.236;6.742;2022-07-03T02:44:25;101226.34;;;21.33;60.37
8699;BME280;4386;51.236;6.742;2022-07-03T02:45:32;101221.97;;;21.32;60.06
8699;BME280;4386;51.236;6.742;2022-07-03T02:46:43;101215.72;;;21.32;60.43
8699;BME280;4386;51.236;6.742;2022-07-03T02:47:57;101220.28;;;21.31;60.48
8699;BME280;4386;51.236;6.742;2022-07-03T02:49:09;101218.59;;;21.30;60.21
8699;BME280;4386;51.236;6.742;2022-07-03T02:50:18;101223.16;;;21.29;60.54
8699;BME280;4386;51.236;6.742;2022-07-03T02:51:30;101221.47;;;21.28;60.35
8699;BME280;4386;51.236;6.742;2022-07-03T02:52:42;101224.16;;;21.28;60.34
8699;BME280;4386;51.236;6.742;2022-07-03T02:53:53;101224.31;;;21.27;60.44
8699;BME280;4386;51.236;6.742;2022-07-03T02:55:07;101220.13;;;21.24;60.62
8699;BME280;4386;51.236;6.742;2022-07-03T02:56:14;101222.19;;;21.22;60.52
8699;BME280;4386;51.236;6.742;2022-07-03T02:57:18;101231.28;;;21.21;60.41
8699;BME280;4386;51.236;6.742;2022-07-03T02:58:32;101222.53;;;21.19;60.78
8699;BME280;4386;51.236;6.742;2022-07-03T02:59:45;101227.25;;;21.17;60.71
8699;BME280;4386;51.236;6.742;2022-07-03T03:00:53;101224.91;;;21.14;60.70
8699;BME280;4386;51.236;6.742;2022-07-03T03:02:07;101222.56;;;21.11;60.81
8699;BME280;4386;51.236;6.742;2022-07-03T03:03:10;101219.03;;;21.11;60.77
8699;BME280;4386;51.236;6.742;2022-07-03T03:04:19;101225.56;;;21.08;61.02
8699;BME280;4386;51.236;6.742;2022-07-03T03:05:28;101229.28;;;21.07;60.90
8699;BME280;4386;51.236;6.742;2022-07-03T03:06:33;101224.25;;;21.04;61.45
8699;BME280;4386;51.236;6.742;2022-07-03T03:07:47;101226.94;;;21.04;61.29
8699;BME280;4386;51.236;6.742;2022-07-03T03:09:00;101224.59;;;21.01;61.38
8699;BME280;4386;51.236;6.742;2022-07-03T03:10:04;101224.59;;;21.01;61.30
8699;BME280;4386;51.236;6.742;2022-07-03T03:11:14;101222.09;;;21.00;61.26
8699;BME280;4386;51.236;6.742;2022-07-03T03:12:30;101219.56;;;20.98;61.90
8699;BME280;4386;51.236;6.742;2022-07-03T03:13:35;101222.44;;;20.97;61.82
8699;BME280;4386;51.236;6.742;2022-07-03T03:14:40;101223.28;;;20.97;61.92
8699;BME280;4386;51.236;6.742;2022-07-03T03:15:51;101218.91;;;20.96;61.94
8699;BME280;4386;51.236;6.742;2022-07-03T03:16:56;101221.59;;;20.96;61.71
8699;BME280;4386;51.236;6.742;2022-07-03T03:18:03;101217.06;;;20.97;62.19
8699;BME280;4386;51.236;6.742;2022-07-03T03:19:06;101217.22;;;20.95;62.21
8699;BME280;4386;51.236;6.742;2022-07-03T03:20:14;101219.91;;;20.95;62.65
8699;BME280;4386;51.236;6.742;2022-07-03T03:21:17;101221.94;;;20.93;62.73
8699;BME280;4386;51.236;6.742;2022-07-03T03:22:28;101221.94;;;20.93;63.41
8699;BME280;4386;51.236;6.742;2022-07-03T03:23:43;101225.66;;;20.92;63.22
8699;BME280;4386;51.236;6.742;2022-07-03T03:24:46;101223.97;;;20.91;63.58
8699;BME280;4386;51.236;6.742;2022-07-03T03:25:51;101233.09;;;20.90;63.37
8699;BME280;4386;51.236;6.742;2022-07-03T03:26:54;101233.09;;;20.90;63.97
8699;BME280;4386;51.236;6.742;2022-07-03T03:27:58;101227.69;;;20.90;63.83
8699;BME280;4386;51.236;6.742;2022-07-03T03:29:02;101234.75;;;20.91;64.17
8699;BME280;4386;51.236;6.742;2022-07-03T03:30:05;101233.09;;;20.90;64.51
8699;BME280;4386;51.236;6.742;2022-07-03T03:31:08;101235.78;;;20.90;64.71
8699;BME280;4386;51.236;6.742;2022-07-03T03:32:11;101231.38;;;20.89;64.24
8699;BME280;4386;51.236;6.742;2022-07-03T03:33:14;101235.78;;;20.90;64.85
8699;BME280;4386;51.236;6.742;2022-07-03T03:34:16;101236.78;;;20.89;64.88
8699;BME280;4386;51.236;6.742;2022-07-03T03:35:19;101235.09;;;20.88;64.78
8699;BME280;4386;51.236;6.742;2022-07-03T03:36:21;101237.78;;;20.88;64.82
8699;BME280;4386;51.236;6.742;2022-07-03T03:37:24;101240.47;;;20.88;64.83
8699;BME280;4386;51.236;6.742;2022-07-03T03:38:25;101242.31;;;20.88;65.23
8699;BME280;4386;51.236;6.742;2022-07-03T03:39:28;101245.22;;;20.86;65.39
8699;BME280;4386;51.236;6.742;2022-07-03T03:40:31;101239.97;;;20.85;64.98
8699;BME280;4386;51.236;6.742;2022-07-03T03:41:34;101237.47;;;20.83;65.04
8699;BME280;4386;51.236;6.742;2022-07-03T03:42:36;101239.31;;;20.83;65.34
8699;BME280;4386;51.236;6.742;2022-07-03T03:43:39;101244.88;;;20.81;65.08
8699;BME280;4386;51.236;6.742;2022-07-03T03:44:43;101238.66;;;20.81;65.29
8699;BME280;4386;51.236;6.742;2022-07-03T03:45:44;101241.53;;;20.79;64.97
8699;BME280;4386;51.236;6.742;2022-07-03T03:46:47;101251.47;;;20.78;64.74
8699;BME280;4386;51.236;6.742;2022-07-03T03:47:49;101239.03;;;20.77;65.11
8699;BME280;4386;51.236;6.742;2022-07-03T03:48:52;101248.94;;;20.77;64.87
8699;BME280;4386;51.236;6.742;2022-07-03T03:49:54;101248.09;;;20.76;64.91
8699;BME280;4386;51.236;6.742;2022-07-03T03:50:57;101243.56;;;20.77;64.69
8699;BME280;4386;51.236;6.742;2022-07-03T03:51:59;101243.56;;;20.77;64.84
8699;BME280;4386;51.236;6.742;2022-07-03T03:53:01;101241.72;;;20.77;64.76
8699;BME280;4386;51.236;6.742;2022-07-03T03:54:03;101247.25;;;20.76;64.52
8699;BME280;4386;51.236;6.742;2022-07-03T03:55:06;101241.88;;;20.76;64.77
8699;BME280;4386;51.236;6.742;2022-07-03T03:56:11;101242.88;;;20.75;64.46
8699;BME280;4386;51.236;6.742;2022-07-03T03:57:18;101246.41;;;20.75;64.87
8699;BME280;4386;51.236;6.742;2022-07-03T03:58:20;101238.53;;;20.74;64.53
8699;BME280;4386;51.236;6.742;2022-07-03T03:59:22;101244.91;;;20.73;64.84
8699;BME280;4386;51.236;6.742;2022-07-03T04:00:26;101243.91;;;20.74;65.08
8699;BME280;4386;51.236;6.742;2022-07-03T04:01:28;101248.44;;;20.73;65.15
8699;BME280;4386;51.236;6.742;2022-07-03T04:02:31;101245.91;;;20.72;65.11
8699;BME280;4386;51.236;6.742;2022-07-03T04:03:33;101249.66;;;20.71;64.85
8699;BME280;4386;51.236;6.742;2022-07-03T04:04:36;101250.31;;;20.73;64.97
8699;BME280;4386;51.236;6.742;2022-07-03T04:05:38;101261.25;;;20.71;64.83
8699;BME280;4386;51.236;6.742;2022-07-03T04:06:40;101253.16;;;20.71;64.68
8699;BME280;4386;51.236;6.742;2022-07-03T04:07:42;101252.50;;;20.69;64.69
8699;BME280;4386;51.236;6.742;2022-07-03T04:08:44;101253.34;;;20.70;64.50
8699;BME280;4386;51.236;6.742;2022-07-03T04:09:47;101248.81;;;20.70;64.58
8699;BME280;4386;51.236;6.742;2022-07-03T04:10:49;101253.16;;;20.71;64.88
8699;BME280;4386;51.236;6.742;2022-07-03T04:11:51;101263.78;;;20.73;64.52
8699;BME280;4386;51.236;6.742;2022-07-03T04:12:53;101258.19;;;20.74;64.00
8699;BME280;4386;51.236;6.742;2022-07-03T04:13:56;101254.50;;;20.75;63.69
8699;BME280;4386;51.236;6.742;2022-07-03T04:14:58;101257.03;;;20.77;63.94
8699;BME280;4386;51.236;6.742;2022-07-03T04:16:03;101257.69;;;20.79;63.82
8699;BME280;4386;51.236;6.742;2022-07-03T04:17:04;101263.06;;;20.79;63.75
8699;BME280;4386;51.236;6.742;2022-07-03T04:18:07;101271.00;;;20.81;63.42
8699;BME280;4386;51.236;6.742;2022-07-03T04:19:09;101277.22;;;20.81;62.93
8699;BME280;4386;51.236;6.742;2022-07-03T04:20:12;101279.25;;;20.79;62.93
8699;BME280;4386;51.236;6.742;2022-07-03T04:21:14;101281.09;;;20.78;62.94
8699;BME280;4386;51.236;6.742;2022-07-03T04:22:16;101282.78;;;20.79;62.59
8699;BME280;4386;51.236;6.742;2022-07-03T04:23:18;101280.09;;;20.79;61.89
8699;BME280;4386;51.236;6.742;2022-07-03T04:24:21;101286.13;;;20.82;61.80
8699;BME280;4386;51.236;6.742;2022-07-03T04:25:22;101286.97;;;20.82;62.01
8699;BME280;4386;51.236;6.742;2022-07-03T04:26:25;101291.38;;;20.83;61.45
8699;BME280;4386;51.236;6.742;2022-07-03T04:27:27;101284.97;;;20.84;61.62
8699;BME280;4386;51.236;6.742;2022-07-03T04:28:51;101286.47;;;20.87;60.92
8699;BME280;4386;51.236;6.742;2022-07-03T04:29:53;101277.34;;;20.88;60.95
8699;BME280;4386;51.236;6.742;2022-07-03T04:30:55;101280.91;;;20.88;60.44
8699;BME280;4386;51.236;6.742;2022-07-03T04:31:59;101278.91;;;20.90;60.78
8699;BME280;4386;51.236;6.742;2022-07-03T04:33:01;101285.13;;;20.91;60.22
8699;BME280;4386;51.236;6.742;2022-07-03T04:34:04;101287.81;;;20.91;60.46
8699;BME280;4386;51.236;6.742;2022-07-03T04:35:07;101279.53;;;20.92;60.59
8699;BME280;4386;51.236;6.742;2022-07-03T04:36:10;101279.53;;;20.92;60.42
8699;BME280;4386;51.236;6.742;2022-07-03T04:37:11;101279.53;;;20.92;60.51
8699;BME280;4386;51.236;6.742;2022-07-03T04:38:14;101280.56;;;20.91;60.30
8699;BME280;4386;51.236;6.742;2022-07-03T04:39:16;101278.91;;;20.90;60.34
8699;BME280;4386;51.236;6.742;2022-07-03T04:40:18;101286.97;;;20.90;59.86
8699;BME280;4386;51.236;6.742;2022-07-03T04:41:20;101289.69;;;20.90;60.02
8699;BME280;4386;51.236;6.742;2022-07-03T04:42:23;101289.84;;;20.89;60.18
8699;BME280;4386;51.236;6.742;2022-07-03T04:43:25;101286.28;;;20.88;59.98
8699;BME280;4386;51.236;6.742;2022-07-03T04:44:27;101287.31;;;20.87;60.14
8699;BME280;4386;51.236;6.742;2022-07-03T04:45:29;101292.72;;;20.87;59.99
8699;BME280;4386;51.236;6.742;2022-07-03T04:46:32;101295.41;;;20.87;60.05
8699;BME280;4386;51.236;6.742;2022-07-03T04:47:35;101296.06;;;20.89;60.38
8699;BME280;4386;51.236;6.742;2022-07-03T04:48:37;101293.22;;;20.91;60.36
8699;BME280;4386;51.236;6.742;2022-07-03T04:49:39;101293.03;;;20.92;60.18
8699;BME280;4386;51.236;6.742;2022-07-03T04:50:42;101283.94;;;20.93;59.83
8699;BME280;4386;51.236;6.742;2022-07-03T04:51:44;101289.13;;;20.95;59.72
8699;BME280;4386;51.236;6.742;2022-07-03T04:52:46;101287.28;;;20.95;59.89
8699;BME280;4386;51.236;6.742;2022-07-03T04:53:48;101293.38;;;20.97;59.81
8699;BME280;4386;51.236;6.742;2022-07-03T04:54:51;101292.31;;;20.98;59.66
8699;BME280;4386;51.236;6.742;2022-07-03T04:55:53;101291.31;;;20.99;59.83
8699;BME280;4386;51.236;6.742;2022-07-03T04:56:56;101287.63;;;21.00;60.09
8699;BME280;4386;51.236;6.742;2022-07-03T04:57:57;101288.63;;;20.99;59.47
8699;BME280;4386;51.236;6.742;2022-07-03T04:59:00;101285.09;;;20.99;59.86
8699;BME280;4386;51.236;6.742;2022-07-03T05:00:06;101284.09;;;21.00;59.81
8699;BME280;4386;51.236;6.742;2022-07-03T05:01:15;101284.94;;;21.00;59.69
8699;BME280;4386;51.236;6.742;2022-07-03T05:02:17;101285.75;;;21.01;59.66
8699;BME280;4386;51.236;6.742;2022-07-03T05:03:21;101283.03;;;21.01;59.67
8699;BME280;4386;51.236;6.742;2022-07-03T05:04:23;101286.59;;;21.01;59.91
8699;BME280;4386;51.236;6.742;2022-07-03T05:05:25;101290.31;;;21.00;59.41
8699;BME280;4386;51.236;6.742;2022-07-03T05:06:27;101289.28;;;21.01;59.83
8699;BME280;4386;51.236;6.742;2022-07-03T05:07:30;101287.28;;;21.03;59.92
8699;BME280;4386;51.236;6.742;2022-07-03T05:08:32;101286.25;;;21.04;59.79
8699;BME280;4386;51.236;6.742;2022-07-03T05:09:34;101289.63;;;21.06;59.95
8699;BME280;4386;51.236;6.742;2022-07-03T05:10:36;101291.13;;;21.09;59.44
8699;BME280;4386;51.236;6.742;2022-07-03T05:11:39;101292.31;;;21.14;59.11
8699;BME280;4386;51.236;6.742;2022-07-03T05:12:41;101292.63;;;21.19;59.38
8699;BME280;4386;51.236;6.742;2022-07-03T05:13:43;101288.72;;;21.30;58.89
8699;BME280;4386;51.236;6.742;2022-07-03T05:14:45;101297.09;;;21.43;58.64
8699;BME280;4386;51.236;6.742;2022-07-03T05:15:48;101292.28;;;21.53;58.13
8699;BME280;4386;51.236;6.742;2022-07-03T05:16:49;101294.31;;;21.59;57.97
8699;BME280;4386;51.236;6.742;2022-07-03T05:17:52;101297.13;;;21.66;58.01
8699;BME280;4386;51.236;6.742;2022-07-03T05:18:55;101298.09;;;21.73;57.84
8699;BME280;4386;51.236;6.742;2022-07-03T05:19:57;101298.41;;;21.78;57.78
8699;BME280;4386;51.236;6.742;2022-07-03T05:21:14;101299.38;;;21.85;57.20
8699;BME280;4386;51.236;6.742;2022-07-03T05:22:17;101301.03;;;21.94;56.96
8699;BME280;4386;51.236;6.742;2022-07-03T05:23:19;101298.25;;;22.02;56.56
8699;BME280;4386;51.236;6.742;2022-07-03T05:24:21;101298.22;;;22.10;56.87
8699;BME280;4386;51.236;6.742;2022-07-03T05:25:25;101304.56;;;22.17;56.32
8699;BME280;4386;51.236;6.742;2022-07-03T05:26:28;101305.53;;;22.24;56.32
8699;BME280;4386;51.236;6.742;2022-07-03T05:27:30;101301.09;;;22.31;56.19
8699;BME280;4386;51.236;6.742;2022-07-03T05:28:33;101309.31;;;22.38;56.00
8699;BME280;4386;51.236;6.742;2022-07-03T05:29:34;101304.34;;;22.42;55.38
8699;BME280;4386;51.236;6.742;2022-07-03T05:30:39;101313.25;;;22.50;55.23
8699;BME280;4386;51.236;6.742;2022-07-03T05:31:41;101321.47;;;22.57;55.42
8699;BME280;4386;51.236;6.742;2022-07-03T05:32:44;101317.38;;;22.61;55.23
8699;BME280;4386;51.236;6.742;2022-07-03T05:33:45;101326.44;;;22.68;55.05
8699;BME280;4386;51.236;6.742;2022-07-03T05:34:50;101327.75;;;22.72;54.79
8699;BME280;4386;51.236;6.742;2022-07-03T05:35:54;101329.25;;;22.74;54.68
8699;BME280;4386;51.236;6.742;2022-07-03T05:36:57;101331.41;;;22.79;54.32
8699;BME280;4386;51.236;6.742;2022-07-03T05:37:58;101329.81;;;22.84;54.23
8699;BME280;4386;51.236;6.742;2022-07-03T05:39:01;101328.28;;;22.90;54.20
8699;BME280;4386;51.236;6.742;2022-07-03T05:40:22;101332.09;;;22.96;53.93
8699;BME280;4386;51.236;6.742;2022-07-03T05:41:24;101331.53;;;23.00;53.91
8699;BME280;4386;51.236;6.742;2022-07-03T05:42:26;101327.88;;;23.08;53.68
8699;BME280;4386;51.236;6.742;2022-07-03T05:43:28;101325.28;;;23.14;53.44
8699;BME280;4386;51.236;6.742;2022-07-03T05:44:30;101327.44;;;23.19;53.19
8699;BME280;4386;51.236;6.742;2022-07-03T05:45:33;101331.25;;;23.24;53.28
8699;BME280;4386;51.236;6.742;2022-07-03T05:46:35;101326.94;;;23.30;53.06
8699;BME280;4386;51.236;6.742;2022-07-03T05:47:37;101324.31;;;23.36;53.11
8699;BME280;4386;51.236;6.742;2022-07-03T05:48:39;101323.63;;;23.43;52.79